MacKay, Idaho
Current Conditions -  °F | °C
As of 9:47 AM on Wednesday 26 Nov 2014 (Local Time) from KSUN Reporting Station
Few Clouds Few Clouds  
Wind Chill: 28°   Ceiling: Unl
Heat Index: 34°   Visibility: 10mi
Dew Point: 30°   Wind: 7mph
Humidity: 87%   Direction: 290°WNW
Pressure: 30.31"   Gusts: NA
Location:  43.91°N, 113.61°W
Report Text: KSUN 261647Z 29006KT 10SM FEW130 01/M01 A3031
Loading
Personal Weather Stations






























Interactive Weather Map New forecast layout! Learn more

10-Day Weather Forecast

Advertisements
Track Severe Weather on mobile